createdAt,value
2023-05-05T00:01:02.489Z,10.84
2023-05-05T00:03:29.871Z,10.88
2023-05-05T00:05:57.100Z,10.84
2023-05-05T00:08:24.106Z,10.75
2023-05-05T00:10:52.356Z,10.68
2023-05-05T00:13:20.661Z,10.57
2023-05-05T00:15:49.916Z,10.53
2023-05-05T00:18:17.905Z,10.58
2023-05-05T00:20:47.484Z,10.44
2023-05-05T00:23:19.144Z,10.46
2023-05-05T00:25:45.971Z,10.54
2023-05-05T00:28:14.446Z,10.52
2023-05-05T00:30:41.502Z,10.48
2023-05-05T00:33:08.313Z,10.43
2023-05-05T00:35:35.332Z,10.37
2023-05-05T00:38:03.356Z,10.55
2023-05-05T00:40:30.184Z,10.65
2023-05-05T00:42:57.157Z,10.61
2023-05-05T00:45:24.100Z,10.47
2023-05-05T00:47:59.145Z,10.40
2023-05-05T00:50:30.444Z,10.32
2023-05-05T00:53:01.811Z,10.44
2023-05-05T00:55:32.979Z,10.35
2023-05-05T00:58:01.211Z,10.42
2023-05-05T01:00:28.691Z,10.39
2023-05-05T01:02:55.981Z,10.39
2023-05-05T01:05:24.408Z,10.42
2023-05-05T01:08:22.298Z,10.39
2023-05-05T01:11:01.668Z,10.46
2023-05-05T01:14:11.317Z,10.35
2023-05-05T01:16:41.747Z,10.36
2023-05-05T01:19:27.062Z,10.25
2023-05-05T01:21:57.479Z,10.26
2023-05-05T01:24:42.717Z,10.30
2023-05-05T01:27:29.373Z,10.31
2023-05-05T01:30:09.015Z,10.27
2023-05-05T01:32:51.308Z,10.28
2023-05-05T01:35:29.180Z,10.17
2023-05-05T01:38:03.421Z,10.29
2023-05-05T01:40:38.056Z,10.24
2023-05-05T01:43:07.694Z,10.21
2023-05-05T01:45:39.996Z,10.19
2023-05-05T01:48:08.443Z,10.16
2023-05-05T01:50:37.097Z,10.21
2023-05-05T01:53:05.152Z,10.25
2023-05-05T01:55:33.914Z,10.40
2023-05-05T01:58:03.639Z,10.41
2023-05-05T02:00:32.053Z,10.31
2023-05-05T02:03:01.441Z,10.29
2023-05-05T02:05:29.373Z,10.40
2023-05-05T02:07:59.135Z,10.38
2023-05-05T02:10:26.495Z,10.45
2023-05-05T02:12:54.177Z,10.43
2023-05-05T02:15:22.919Z,10.36
2023-05-05T02:17:54.485Z,10.30
2023-05-05T02:20:22.735Z,10.36
2023-05-05T02:22:49.910Z,10.21
2023-05-05T02:25:18.217Z,10.26
2023-05-05T02:27:48.348Z,10.30
2023-05-05T02:30:18.318Z,10.31
2023-05-05T02:32:55.548Z,10.28
2023-05-05T02:35:27.294Z,10.20
2023-05-05T02:38:02.871Z,10.10
2023-05-05T02:40:33.165Z,10.20
2023-05-05T02:43:05.089Z,10.17
2023-05-05T02:45:32.477Z,10.20
2023-05-05T02:48:04.089Z,10.11
2023-05-05T02:50:31.984Z,9.95
2023-05-05T02:52:59.649Z,10.00
2023-05-05T02:55:32.029Z,9.94
2023-05-05T02:58:17.292Z,10.06
2023-05-05T03:01:01.016Z,9.90
2023-05-05T03:03:47.735Z,9.87
2023-05-05T03:06:21.576Z,9.88
2023-05-05T03:09:02.798Z,9.87
2023-05-05T03:11:35.809Z,9.75
2023-05-05T03:14:18.542Z,9.91
2023-05-05T03:16:47.929Z,9.96
2023-05-05T03:19:18.360Z,9.90
2023-05-05T03:21:45.602Z,9.79
2023-05-05T03:24:19.978Z,9.82
2023-05-05T03:26:48.162Z,9.83
2023-05-05T03:29:15.448Z,9.78
2023-05-05T03:31:42.655Z,9.79
2023-05-05T03:34:09.681Z,9.71
2023-05-05T03:36:36.669Z,9.68
2023-05-05T03:39:04.035Z,9.69
2023-05-05T03:41:30.825Z,9.74
2023-05-05T03:43:57.567Z,9.61
2023-05-05T03:46:24.432Z,9.48
2023-05-05T03:48:51.812Z,9.44
2023-05-05T03:51:18.613Z,9.48
2023-05-05T03:53:45.410Z,9.51
2023-05-05T03:56:12.250Z,9.52
2023-05-05T03:58:39.045Z,9.46
2023-05-05T04:01:05.886Z,9.41
2023-05-05T04:03:32.726Z,9.39
2023-05-05T04:05:59.575Z,9.52
2023-05-05T04:08:26.407Z,9.42
2023-05-05T04:10:53.216Z,9.43
2023-05-05T04:13:20.192Z,9.42
2023-05-05T04:15:47.163Z,9.45
2023-05-05T04:18:14.027Z,9.39
2023-05-05T04:20:40.983Z,9.38
2023-05-05T04:23:07.753Z,9.35
2023-05-05T04:25:34.549Z,9.40
2023-05-05T04:28:01.748Z,9.51
2023-05-05T04:30:28.578Z,9.41
2023-05-05T04:32:55.390Z,9.35
2023-05-05T04:35:22.522Z,9.35
2023-05-05T04:37:49.657Z,9.45
2023-05-05T04:40:16.598Z,9.41
2023-05-05T04:42:43.343Z,9.39
2023-05-05T04:45:10.561Z,9.43
2023-05-05T04:47:38.693Z,9.38
2023-05-05T04:50:06.622Z,9.48
2023-05-05T04:52:33.772Z,9.56
2023-05-05T04:55:01.427Z,9.67
2023-05-05T04:57:29.749Z,9.52
2023-05-05T04:59:56.697Z,9.56
2023-05-05T05:02:23.615Z,9.68
2023-05-05T05:04:50.401Z,9.80
2023-05-05T05:07:17.265Z,9.77
2023-05-05T05:09:44.102Z,9.82
2023-05-05T05:12:10.869Z,9.80
2023-05-05T05:14:38.589Z,9.75
2023-05-05T05:17:06.160Z,9.83
2023-05-05T05:19:32.986Z,10.00
2023-05-05T05:21:59.830Z,10.03
2023-05-05T05:24:30.074Z,10.10
2023-05-05T05:26:56.859Z,10.28
2023-05-05T05:29:23.793Z,10.43
2023-05-05T05:31:50.558Z,10.33
2023-05-05T05:34:17.400Z,10.42
2023-05-05T05:36:44.130Z,10.63
2023-05-05T05:39:10.876Z,10.65
2023-05-05T05:41:37.634Z,10.69
2023-05-05T05:44:04.519Z,10.75
2023-05-05T05:46:32.020Z,10.96
2023-05-05T05:48:58.797Z,11.10
2023-05-05T05:51:25.819Z,11.34
2023-05-05T05:53:52.608Z,11.51
2023-05-05T05:56:19.326Z,11.53
2023-05-05T05:58:46.102Z,11.45
2023-05-05T06:01:12.910Z,11.78
2023-05-05T06:03:39.890Z,11.81
2023-05-05T06:06:07.731Z,11.96
2023-05-05T06:08:34.568Z,11.94
2023-05-05T06:11:01.384Z,12.11
2023-05-05T06:13:28.132Z,12.07
2023-05-05T06:15:55.029Z,12.15
2023-05-05T06:18:21.890Z,12.20
2023-05-05T06:20:52.608Z,12.56
2023-05-05T06:23:19.449Z,12.68
2023-05-05T06:25:46.284Z,12.95
2023-05-05T06:28:13.028Z,13.20
2023-05-05T06:30:39.775Z,13.36
2023-05-05T06:33:06.579Z,13.51
2023-05-05T06:35:33.401Z,13.54
2023-05-05T06:38:00.198Z,13.71
2023-05-05T06:40:26.987Z,13.68
2023-05-05T06:42:53.819Z,13.76
2023-05-05T06:45:20.601Z,13.84
2023-05-05T06:47:47.647Z,13.99
2023-05-05T06:50:14.488Z,14.26
2023-05-05T06:52:42.087Z,14.76
2023-05-05T06:55:09.305Z,14.47
2023-05-05T06:57:36.063Z,14.60
2023-05-05T07:00:07.488Z,14.79
2023-05-05T07:02:34.517Z,15.37
2023-05-05T07:05:01.382Z,15.77
2023-05-05T07:07:28.392Z,15.98
2023-05-05T07:09:55.126Z,15.96
2023-05-05T07:12:22.159Z,15.37
2023-05-05T07:14:49.176Z,15.40
2023-05-05T07:17:16.234Z,15.89
2023-05-05T07:19:44.521Z,15.89
2023-05-05T07:22:11.273Z,16.04
2023-05-05T07:24:37.988Z,16.41
2023-05-05T07:27:05.856Z,16.34
2023-05-05T07:29:32.650Z,16.83
2023-05-05T07:31:59.808Z,16.78
2023-05-05T07:34:26.629Z,16.90
2023-05-05T07:36:53.463Z,16.66
2023-05-05T07:39:21.341Z,17.60
2023-05-05T07:41:48.088Z,16.92
2023-05-05T07:44:14.869Z,17.93
2023-05-05T07:46:42.009Z,17.70
2023-05-05T07:49:09.307Z,18.23
2023-05-05T07:51:36.066Z,17.91
2023-05-05T07:54:02.820Z,18.38
2023-05-05T07:56:29.848Z,17.91
2023-05-05T07:58:56.608Z,17.80
2023-05-05T08:01:23.526Z,18.06
2023-05-05T08:03:50.329Z,18.37
2023-05-05T08:06:22.312Z,18.46
2023-05-05T08:08:49.824Z,18.62
2023-05-05T08:11:16.817Z,19.62
2023-05-05T08:13:44.409Z,19.94
2023-05-05T08:16:11.661Z,19.23
2023-05-05T08:18:38.929Z,18.59
2023-05-05T08:21:07.746Z,18.72
2023-05-05T08:23:36.028Z,20.36
2023-05-05T08:26:06.393Z,20.72
2023-05-05T08:28:37.047Z,20.84
2023-05-05T08:31:04.737Z,20.29
2023-05-05T08:33:31.752Z,19.09
2023-05-05T08:35:58.672Z,20.86
2023-05-05T08:38:25.514Z,21.35
2023-05-05T08:40:53.063Z,21.77
2023-05-05T08:43:23.052Z,20.18
2023-05-05T08:45:51.854Z,21.49
2023-05-05T08:48:22.491Z,21.21
2023-05-05T08:50:56.651Z,21.77
2023-05-05T08:53:47.122Z,21.76
2023-05-05T08:56:16.218Z,22.47
2023-05-05T08:58:44.890Z,22.41
2023-05-05T09:01:14.123Z,21.91
2023-05-05T09:03:41.454Z,23.39
2023-05-05T09:06:09.880Z,22.91
2023-05-05T09:08:40.280Z,23.26
2023-05-05T09:11:07.110Z,23.74
2023-05-05T09:13:34.141Z,24.35
2023-05-05T09:16:00.978Z,22.22
2023-05-05T09:18:27.926Z,22.09
2023-05-05T09:20:56.847Z,22.62
2023-05-05T09:23:25.824Z,23.49
2023-05-05T09:26:09.129Z,23.10
2023-05-05T09:28:36.039Z,23.88
2023-05-05T09:31:16.372Z,24.13
2023-05-05T09:33:43.809Z,23.67
2023-05-05T09:36:11.851Z,24.68
2023-05-05T09:38:38.731Z,23.74
2023-05-05T09:41:06.741Z,24.46
2023-05-05T09:43:53.810Z,24.69
2023-05-05T09:46:20.759Z,24.24
2023-05-05T09:48:47.675Z,25.46
2023-05-05T09:51:14.616Z,24.64
2023-05-05T09:53:42.720Z,23.75
2023-05-05T09:56:10.562Z,25.46
2023-05-05T09:58:37.780Z,24.36
2023-05-05T10:01:04.594Z,24.02
2023-05-05T10:03:31.656Z,23.50
2023-05-05T10:05:59.899Z,24.70
2023-05-05T10:08:33.903Z,24.93
2023-05-05T10:11:06.721Z,25.15
2023-05-05T10:13:43.302Z,25.33
2023-05-05T10:16:12.858Z,26.22
2023-05-05T10:18:46.939Z,25.01
2023-05-05T10:21:20.196Z,25.09
2023-05-05T10:23:58.637Z,25.87
2023-05-05T10:26:28.025Z,25.74
2023-05-05T10:29:01.948Z,25.85
2023-05-05T10:31:34.720Z,25.28
2023-05-05T10:34:06.558Z,25.83
2023-05-05T10:36:34.484Z,25.68
2023-05-05T10:39:02.881Z,25.91
2023-05-05T10:41:33.837Z,24.97
2023-05-05T10:44:04.318Z,24.74
2023-05-05T10:46:32.361Z,24.92
2023-05-05T10:49:13.936Z,25.32
2023-05-05T10:51:51.002Z,26.13
2023-05-05T10:54:45.511Z,25.75
2023-05-05T10:57:12.560Z,25.42
2023-05-05T10:59:41.102Z,25.69
2023-05-05T11:02:28.176Z,25.64
2023-05-05T11:05:07.404Z,25.35
2023-05-05T11:07:34.740Z,24.62
2023-05-05T11:10:03.112Z,24.33
2023-05-05T11:12:31.164Z,24.88
2023-05-05T11:15:31.465Z,24.45
2023-05-05T11:18:05.718Z,24.60
2023-05-05T11:20:43.794Z,24.68
2023-05-05T11:23:10.534Z,24.97
2023-05-05T11:25:41.330Z,24.99
2023-05-05T11:28:11.494Z,24.73
2023-05-05T11:30:59.780Z,25.77
2023-05-05T11:33:31.707Z,25.37
2023-05-05T11:36:06.654Z,25.15
2023-05-05T11:38:36.556Z,25.38
2023-05-05T11:41:29.233Z,24.71
2023-05-05T11:44:19.873Z,25.85
2023-05-05T11:46:52.533Z,25.32
2023-05-05T11:49:32.550Z,25.00
2023-05-05T11:52:10.627Z,24.62
2023-05-05T11:54:47.767Z,24.75
2023-05-05T11:57:22.580Z,24.89
2023-05-05T12:00:08.620Z,25.01
2023-05-05T12:02:36.641Z,25.30
2023-05-05T12:05:04.472Z,25.23
2023-05-05T12:07:33.767Z,25.42
2023-05-05T12:10:01.390Z,25.86
2023-05-05T12:12:40.682Z,25.36
2023-05-05T12:15:09.304Z,25.40
2023-05-05T12:17:39.591Z,24.63
2023-05-05T12:20:07.986Z,25.03
2023-05-05T12:22:36.183Z,24.57
2023-05-05T12:25:06.846Z,24.62
2023-05-05T12:27:35.567Z,24.72
2023-05-05T12:30:17.794Z,24.55
2023-05-05T12:32:47.031Z,24.81
2023-05-05T12:35:14.634Z,24.55
2023-05-05T12:37:46.694Z,24.96
2023-05-05T12:40:49.227Z,25.11
2023-05-05T12:43:29.040Z,25.61
2023-05-05T12:46:13.698Z,25.67
2023-05-05T12:48:48.181Z,26.46
2023-05-05T12:51:20.991Z,27.49
2023-05-05T12:53:49.860Z,27.11
2023-05-05T12:56:43.324Z,26.67
2023-05-05T12:59:11.948Z,26.52
2023-05-05T13:01:56.870Z,26.26
2023-05-05T13:04:26.425Z,27.51
2023-05-05T13:07:14.324Z,27.27
2023-05-05T13:09:41.860Z,26.11
2023-05-05T13:12:12.152Z,26.20
2023-05-05T13:14:40.360Z,25.62
2023-05-05T13:17:07.466Z,25.34
2023-05-05T13:19:36.206Z,25.44
2023-05-05T13:22:03.600Z,26.04
2023-05-05T13:24:42.756Z,25.65
2023-05-05T13:27:17.419Z,26.06
2023-05-05T13:29:44.411Z,26.15
2023-05-05T13:32:11.259Z,26.04
2023-05-05T13:34:39.604Z,25.98
2023-05-05T13:37:06.977Z,26.00
2023-05-05T13:39:34.250Z,24.72
2023-05-05T13:42:01.752Z,25.38
2023-05-05T13:44:28.721Z,25.52
2023-05-05T13:46:55.691Z,25.32
2023-05-05T13:49:22.722Z,24.89
2023-05-05T13:51:49.645Z,24.67
2023-05-05T13:54:16.931Z,24.80
2023-05-05T13:56:44.060Z,24.77
2023-05-05T13:59:10.870Z,24.51
2023-05-05T14:01:40.715Z,24.88
2023-05-05T14:04:07.974Z,25.19
2023-05-05T14:06:35.913Z,24.44
2023-05-05T14:09:06.434Z,25.32
2023-05-05T14:11:34.119Z,25.97
2023-05-05T14:14:01.964Z,25.29
2023-05-05T14:16:28.832Z,25.60
2023-05-05T14:18:55.734Z,25.83
2023-05-05T14:21:22.484Z,26.82
2023-05-05T14:23:49.373Z,26.53
2023-05-05T14:26:16.367Z,26.03
2023-05-05T14:28:43.783Z,25.32
2023-05-05T14:31:11.385Z,25.40
2023-05-05T14:33:38.465Z,24.95
2023-05-05T14:36:05.672Z,24.86
2023-05-05T14:38:32.535Z,24.99
2023-05-05T14:40:59.348Z,24.74
2023-05-05T14:43:26.295Z,24.82
2023-05-05T14:45:53.470Z,24.53
2023-05-05T14:48:22.662Z,24.37
2023-05-05T14:50:50.112Z,24.08
2023-05-05T14:53:17.168Z,24.38
2023-05-05T14:55:44.736Z,24.31
2023-05-05T14:58:11.492Z,24.32
2023-05-05T15:00:38.416Z,24.33
2023-05-05T15:03:05.398Z,24.52
2023-05-05T15:05:32.326Z,24.98
2023-05-05T15:07:59.117Z,24.82
2023-05-05T15:10:26.148Z,24.97
2023-05-05T15:12:53.004Z,25.61
2023-05-05T15:15:19.778Z,26.12
2023-05-05T15:17:46.786Z,26.98
2023-05-05T15:20:13.604Z,26.38
2023-05-05T15:22:40.525Z,25.96
2023-05-05T15:25:11.137Z,27.23
2023-05-05T15:27:39.785Z,26.81
2023-05-05T15:30:07.403Z,26.24
2023-05-05T15:32:34.354Z,25.60
2023-05-05T15:35:01.378Z,26.27
2023-05-05T15:37:31.250Z,26.55
2023-05-05T15:39:58.347Z,27.08
2023-05-05T15:42:26.056Z,26.51
2023-05-05T15:44:52.960Z,27.07
2023-05-05T15:47:19.986Z,25.60
2023-05-05T15:49:46.964Z,25.84
2023-05-05T15:52:14.431Z,24.76
2023-05-05T15:54:41.931Z,24.64
2023-05-05T15:57:08.966Z,24.52
2023-05-05T15:59:36.570Z,24.04
2023-05-05T16:02:03.770Z,23.93
2023-05-05T16:04:30.701Z,23.68
2023-05-05T16:06:58.333Z,23.34
2023-05-05T16:09:25.173Z,23.47
2023-05-05T16:11:54.876Z,23.13
2023-05-05T16:14:22.155Z,23.18
2023-05-05T16:16:49.402Z,22.89
2023-05-05T16:19:16.378Z,22.75
2023-05-05T16:21:43.598Z,22.61
2023-05-05T16:24:10.745Z,22.22
2023-05-05T16:26:37.594Z,21.64
2023-05-05T16:29:04.442Z,21.22
2023-05-05T16:31:34.158Z,21.21
2023-05-05T16:34:01.476Z,20.59
2023-05-05T16:36:28.500Z,19.43
2023-05-05T16:38:55.277Z,19.09
2023-05-05T16:41:22.998Z,19.13
2023-05-05T16:43:50.266Z,19.12
2023-05-05T16:46:17.480Z,19.13
2023-05-05T16:48:44.394Z,19.18
2023-05-05T16:51:11.656Z,19.15
2023-05-05T16:53:38.679Z,19.18
2023-05-05T16:56:06.336Z,19.23
2023-05-05T16:58:33.124Z,19.27
2023-05-05T17:01:02.098Z,19.24
2023-05-05T17:03:28.865Z,19.30
2023-05-05T17:05:55.777Z,19.32
2023-05-05T17:08:22.831Z,19.36
2023-05-05T17:10:49.684Z,19.33
2023-05-05T17:13:16.673Z,19.30
2023-05-05T17:15:44.555Z,19.30
2023-05-05T17:18:11.425Z,19.20
2023-05-05T17:20:38.445Z,19.12
2023-05-05T17:23:05.389Z,19.05
2023-05-05T17:25:32.438Z,19.00
2023-05-05T17:27:59.223Z,18.92
2023-05-05T17:30:26.586Z,18.89
2023-05-05T17:32:53.542Z,18.93
2023-05-05T17:35:20.394Z,18.88
2023-05-05T17:37:47.261Z,18.96
2023-05-05T17:40:14.129Z,18.90
2023-05-05T17:42:40.881Z,18.88
2023-05-05T17:45:08.625Z,18.59
2023-05-05T17:47:36.900Z,17.77
2023-05-05T17:50:04.004Z,17.27
2023-05-05T17:52:31.147Z,17.14
2023-05-05T17:54:58.150Z,17.05
2023-05-05T17:57:28.050Z,17.01
2023-05-05T17:59:54.870Z,16.79
2023-05-05T18:02:21.792Z,16.25
2023-05-05T18:04:48.678Z,15.93
2023-05-05T18:07:15.597Z,15.66
2023-05-05T18:09:42.806Z,15.46
2023-05-05T18:12:09.759Z,15.23
2023-05-05T18:14:36.941Z,15.04
2023-05-05T18:17:04.984Z,14.91
2023-05-05T18:19:31.883Z,14.88
2023-05-05T18:21:59.352Z,14.88
2023-05-05T18:24:26.749Z,14.86
2023-05-05T18:26:53.780Z,14.87
2023-05-05T18:29:24.767Z,14.90
2023-05-05T18:31:53.874Z,14.94
2023-05-05T18:34:21.130Z,14.85
2023-05-05T18:36:50.668Z,14.80
2023-05-05T18:39:18.062Z,14.83
2023-05-05T18:41:45.155Z,14.75
2023-05-05T18:44:12.136Z,14.85
2023-05-05T18:46:39.317Z,14.83
2023-05-05T18:49:06.484Z,14.70
2023-05-05T18:51:33.530Z,14.64
2023-05-05T18:54:01.188Z,14.66
2023-05-05T18:56:28.180Z,14.61
2023-05-05T18:58:55.092Z,14.61
2023-05-05T19:01:22.382Z,14.62
2023-05-05T19:03:50.129Z,14.71
2023-05-05T19:06:17.932Z,14.80
2023-05-05T19:08:45.860Z,14.82
2023-05-05T19:11:14.980Z,14.77
2023-05-05T19:13:42.242Z,14.79
2023-05-05T19:16:10.516Z,14.75
2023-05-05T19:18:37.606Z,14.74
2023-05-05T19:21:04.480Z,14.72
2023-05-05T19:23:32.470Z,14.74
2023-05-05T19:25:59.405Z,14.61
2023-05-05T19:28:26.188Z,14.53
2023-05-05T19:30:52.975Z,14.55
2023-05-05T19:33:19.788Z,14.51
2023-05-05T19:35:46.828Z,14.68
2023-05-05T19:38:13.720Z,14.54
2023-05-05T19:40:41.566Z,14.56
2023-05-05T19:43:08.486Z,14.66
2023-05-05T19:45:35.800Z,14.64
2023-05-05T19:48:02.706Z,14.63
2023-05-05T19:50:30.593Z,14.74
2023-05-05T19:52:58.151Z,14.63
2023-05-05T19:55:25.192Z,14.72
2023-05-05T19:57:51.991Z,14.74
2023-05-05T20:00:19.891Z,14.72
2023-05-05T20:02:48.931Z,14.51
2023-05-05T20:05:17.804Z,14.46
2023-05-05T20:07:46.530Z,14.49
2023-05-05T20:10:16.875Z,14.37
2023-05-05T20:12:48.482Z,14.33
2023-05-05T20:15:19.519Z,14.31
2023-05-05T20:17:50.146Z,14.31
2023-05-05T20:20:21.694Z,14.36
2023-05-05T20:22:49.428Z,14.34
2023-05-05T20:25:17.002Z,14.31
2023-05-05T20:27:45.859Z,14.43
2023-05-05T20:30:13.401Z,14.32
2023-05-05T20:32:41.077Z,14.31
2023-05-05T20:35:08.501Z,14.27
2023-05-05T20:37:35.286Z,14.34
2023-05-05T20:40:02.080Z,14.42
2023-05-05T20:42:29.956Z,14.39
2023-05-05T20:44:56.880Z,14.41
2023-05-05T20:47:24.515Z,14.27
2023-05-05T20:49:52.686Z,14.27
2023-05-05T20:52:19.652Z,14.32
2023-05-05T20:54:46.562Z,14.36
2023-05-05T20:57:13.390Z,14.22
2023-05-05T20:59:40.180Z,14.13
2023-05-05T21:02:07.764Z,14.18
2023-05-05T21:04:34.734Z,14.11
2023-05-05T21:07:01.677Z,14.12
2023-05-05T21:09:28.574Z,14.12
2023-05-05T21:11:55.420Z,14.15
2023-05-05T21:14:22.415Z,14.23
2023-05-05T21:16:49.366Z,14.16
2023-05-05T21:19:16.667Z,14.13
2023-05-05T21:21:43.477Z,14.17
2023-05-05T21:24:10.754Z,14.06
2023-05-05T21:26:37.579Z,14.07
2023-05-05T21:29:04.437Z,14.19
2023-05-05T21:31:31.259Z,13.97
2023-05-05T21:33:58.000Z,13.89
2023-05-05T21:36:24.978Z,13.80
2023-05-05T21:38:51.808Z,13.80
2023-05-05T21:41:18.569Z,13.66
2023-05-05T21:43:45.426Z,13.61
2023-05-05T21:46:12.426Z,13.56
2023-05-05T21:48:40.225Z,13.57
2023-05-05T21:51:07.385Z,13.58
2023-05-05T21:53:34.366Z,13.47
2023-05-05T21:56:01.584Z,13.44
2023-05-05T21:58:29.297Z,13.41
2023-05-05T22:00:56.043Z,13.47
2023-05-05T22:03:22.953Z,13.48
2023-05-05T22:05:49.794Z,13.54
2023-05-05T22:08:16.607Z,13.39
2023-05-05T22:10:43.306Z,13.39
2023-05-05T22:13:10.810Z,13.38
2023-05-05T22:15:45.803Z,13.30
2023-05-05T22:18:13.724Z,13.22
2023-05-05T22:20:41.145Z,13.29
2023-05-05T22:23:08.062Z,13.30
2023-05-05T22:25:35.215Z,13.29
2023-05-05T22:28:02.871Z,13.43
2023-05-05T22:30:29.719Z,13.35
2023-05-05T22:32:56.599Z,13.49
2023-05-05T22:35:23.553Z,13.42
2023-05-05T22:37:50.363Z,13.45
2023-05-05T22:40:17.230Z,13.43
2023-05-05T22:42:44.234Z,13.51
2023-05-05T22:45:11.695Z,13.58
2023-05-05T22:47:38.731Z,13.61
2023-05-05T22:50:06.518Z,13.55
2023-05-05T22:52:33.289Z,13.62
2023-05-05T22:55:00.086Z,13.62
2023-05-05T22:57:26.823Z,13.73
2023-05-05T22:59:53.585Z,13.78
2023-05-05T23:02:20.368Z,13.77
2023-05-05T23:04:47.187Z,13.79
2023-05-05T23:07:14.036Z,13.65
2023-05-05T23:09:41.218Z,13.64
2023-05-05T23:12:08.054Z,13.67
2023-05-05T23:14:36.950Z,13.66
2023-05-05T23:17:03.933Z,13.64
2023-05-05T23:19:32.752Z,13.71
2023-05-05T23:21:59.995Z,13.58
2023-05-05T23:24:27.278Z,13.67
2023-05-05T23:26:54.983Z,13.70
2023-05-05T23:29:21.735Z,13.72
2023-05-05T23:31:48.794Z,13.62
2023-05-05T23:34:15.839Z,13.64
2023-05-05T23:36:42.772Z,13.68
2023-05-05T23:39:09.538Z,13.63
2023-05-05T23:41:36.415Z,13.71
2023-05-05T23:44:03.605Z,13.75
2023-05-05T23:46:30.786Z,13.66
2023-05-05T23:48:57.568Z,13.64
2023-05-05T23:51:24.427Z,13.73
2023-05-05T23:53:51.174Z,13.78
2023-05-05T23:56:17.996Z,13.73
2023-05-05T23:58:44.768Z,13.68
